PAS242 WIII-WAHI
Flight info
| Callsign | PAS242 |
|---|---|
| Flight time | 0h 39m |
| Altitude | 35000 |
| Route | PW W17 CLP |
| Aircraft | A320/M-SDE3FGHIRWY/LB1 |
Departure
| Time | 2026-04-20 15:14 |
|---|---|
| Airport | Soekarno-Hatta International Airport (WIII) |
Arrival
| Time | 2026-04-20 15:54 |
|---|---|
| Airport | Yogyakarta International Airport (WAHI) |
| Time | Latitude | Longitude | Altitude | Speed | Heading |
|---|---|---|---|---|---|
| 2026-04-20 14:26 | -6.12013 | 106.65622 | 38 ft | 0 kts | 246° |
| 2026-04-20 15:02 | -6.12013 | 106.65623 | 38 ft | 2 kts | 246° |
| 2026-04-20 15:03 | -6.12003 | 106.65647 | 35 ft | 4 kts | 248° |
| 2026-04-20 15:03 | -6.11993 | 106.65672 | 35 ft | 4 kts | 253° |
| 2026-04-20 15:03 | -6.11988 | 106.65698 | 34 ft | 4 kts | 279° |
| 2026-04-20 15:03 | -6.11998 | 106.65715 | 36 ft | 4 kts | 337° |
| 2026-04-20 15:04 | -6.12018 | 106.65722 | 37 ft | 0 kts | 339° |
| 2026-04-20 15:06 | -6.12014 | 106.65721 | 34 ft | 3 kts | 339° |
| 2026-04-20 15:06 | -6.11979 | 106.65707 | 35 ft | 8 kts | 339° |
| 2026-04-20 15:07 | -6.11907 | 106.65678 | 38 ft | 14 kts | 338° |
| 2026-04-20 15:07 | -6.11824 | 106.65645 | 38 ft | 12 kts | 339° |
| 2026-04-20 15:07 | -6.11750 | 106.65615 | 38 ft | 11 kts | 336° |
| 2026-04-20 15:07 | -6.11682 | 106.65587 | 38 ft | 11 kts | 338° |
| 2026-04-20 15:08 | -6.11637 | 106.65540 | 38 ft | 10 kts | 268° |
| 2026-04-20 15:08 | -6.11668 | 106.65457 | 38 ft | 16 kts | 248° |
| 2026-04-20 15:08 | -6.11714 | 106.65340 | 36 ft | 19 kts | 248° |
| 2026-04-20 15:08 | -6.11763 | 106.65220 | 39 ft | 18 kts | 248° |
| 2026-04-20 15:09 | -6.11808 | 106.65103 | 38 ft | 17 kts | 249° |
| 2026-04-20 15:09 | -6.11851 | 106.64998 | 38 ft | 16 kts | 248° |
| 2026-04-20 15:09 | -6.11889 | 106.64901 | 36 ft | 14 kts | 248° |
| 2026-04-20 15:09 | -6.11931 | 106.64798 | 38 ft | 19 kts | 248° |
| 2026-04-20 15:10 | -6.11987 | 106.64657 | 37 ft | 23 kts | 248° |
| 2026-04-20 15:10 | -6.12049 | 106.64502 | 38 ft | 25 kts | 248° |
| 2026-04-20 15:10 | -6.12115 | 106.64336 | 39 ft | 27 kts | 248° |
| 2026-04-20 15:10 | -6.12185 | 106.64161 | 39 ft | 27 kts | 248° |
| 2026-04-20 15:11 | -6.12239 | 106.64024 | 38 ft | 18 kts | 248° |
| 2026-04-20 15:11 | -6.12252 | 106.63921 | 40 ft | 13 kts | 301° |
| 2026-04-20 15:11 | -6.12182 | 106.63891 | 39 ft | 10 kts | 2° |
| 2026-04-20 15:11 | -6.12116 | 106.63915 | 41 ft | 12 kts | 19° |
| 2026-04-20 15:12 | -6.12082 | 106.63931 | 41 ft | 0 kts | 49° |
| 2026-04-20 15:12 | -6.12077 | 106.63941 | 41 ft | 2 kts | 66° |
| 2026-04-20 15:12 | -6.12076 | 106.63943 | 41 ft | 0 kts | 69° |
| 2026-04-20 15:13 | -6.12067 | 106.63967 | 40 ft | 17 kts | 69° |
| 2026-04-20 15:13 | -6.11904 | 106.64375 | 40 ft | 104 kts | 68° |
| 2026-04-20 15:13 | -6.11554 | 106.65255 | 46 ft | 169 kts | 68° |
| 2026-04-20 15:14 | -6.11071 | 106.66454 | 594 ft | 194 kts | 69° |
| 2026-04-20 15:14 | -6.10563 | 106.67720 | 1573 ft | 201 kts | 64° |
| 2026-04-20 15:14 | -6.09707 | 106.68923 | 2069 ft | 225 kts | 50° |
| 2026-04-20 15:14 | -6.08538 | 106.70147 | 2419 ft | 258 kts | 45° |
| 2026-04-20 15:15 | -6.07186 | 106.71453 | 2879 ft | 273 kts | 45° |
| 2026-04-20 15:15 | -6.05869 | 106.72733 | 4411 ft | 260 kts | 45° |
| 2026-04-20 15:15 | -6.04562 | 106.74043 | 4906 ft | 270 kts | 47° |
| 2026-04-20 15:15 | -6.03283 | 106.75373 | 5901 ft | 268 kts | 47° |
| 2026-04-20 15:16 | -6.01991 | 106.76734 | 6826 ft | 271 kts | 47° |
| 2026-04-20 15:16 | -6.00692 | 106.78116 | 7688 ft | 275 kts | 47° |
| 2026-04-20 15:16 | -5.99381 | 106.79534 | 8551 ft | 279 kts | 51° |
| 2026-04-20 15:16 | -5.98405 | 106.81232 | 9379 ft | 283 kts | 72° |
| 2026-04-20 15:17 | -5.98124 | 106.83165 | 10166 ft | 287 kts | 93° |
| 2026-04-20 15:17 | -5.98552 | 106.85135 | 10795 ft | 298 kts | 108° |
| 2026-04-20 15:17 | -5.99247 | 106.87183 | 11117 ft | 320 kts | 108° |
| 2026-04-20 15:17 | -5.99999 | 106.89354 | 11531 ft | 336 kts | 109° |
| 2026-04-20 15:18 | -6.00775 | 106.91589 | 12251 ft | 341 kts | 108° |
| 2026-04-20 15:18 | -6.01557 | 106.93849 | 13002 ft | 345 kts | 108° |
| 2026-04-20 15:18 | -6.02344 | 106.96135 | 13727 ft | 349 kts | 108° |
| 2026-04-20 15:18 | -6.03141 | 106.98453 | 14358 ft | 353 kts | 108° |
| 2026-04-20 15:19 | -6.03948 | 107.00801 | 14976 ft | 357 kts | 108° |
| 2026-04-20 15:19 | -6.04759 | 107.03166 | 15594 ft | 360 kts | 108° |
| 2026-04-20 15:19 | -6.05579 | 107.05559 | 16218 ft | 364 kts | 108° |
| 2026-04-20 15:19 | -6.06404 | 107.07977 | 16848 ft | 368 kts | 108° |
| 2026-04-20 15:20 | -6.07235 | 107.10422 | 17467 ft | 372 kts | 108° |
| 2026-04-20 15:20 | -6.08075 | 107.12888 | 18072 ft | 376 kts | 108° |
| 2026-04-20 15:20 | -6.09097 | 107.15321 | 18594 ft | 381 kts | 118° |
| 2026-04-20 15:20 | -6.10610 | 107.17523 | 19099 ft | 385 kts | 130° |
| 2026-04-20 15:21 | -6.12561 | 107.19378 | 19608 ft | 390 kts | 142° |
| 2026-04-20 15:21 | -6.14060 | 107.20376 | 19944 ft | 393 kts | 149° |
| 2026-04-20 15:21 | -6.17251 | 107.22208 | 20626 ft | 397 kts | 149° |
| 2026-04-20 15:21 | -6.19660 | 107.23597 | 21116 ft | 401 kts | 149° |
| 2026-04-20 15:22 | -6.21261 | 107.24522 | 21426 ft | 403 kts | 149° |
| 2026-04-20 15:22 | -6.23712 | 107.25942 | 21906 ft | 407 kts | 149° |
| 2026-04-20 15:22 | -6.26175 | 107.27371 | 22389 ft | 411 kts | 149° |
| 2026-04-20 15:22 | -6.28658 | 107.28805 | 22863 ft | 414 kts | 150° |
| 2026-04-20 15:23 | -6.31998 | 107.30730 | 23492 ft | 419 kts | 150° |
| 2026-04-20 15:23 | -6.33715 | 107.31721 | 23750 ft | 421 kts | 150° |
| 2026-04-20 15:23 | -6.36257 | 107.33189 | 24149 ft | 423 kts | 150° |
| 2026-04-20 15:23 | -6.38784 | 107.34652 | 24547 ft | 426 kts | 150° |
| 2026-04-20 15:24 | -6.41361 | 107.36144 | 24957 ft | 428 kts | 150° |
| 2026-04-20 15:24 | -6.43954 | 107.37643 | 25342 ft | 431 kts | 150° |
| 2026-04-20 15:24 | -6.46563 | 107.39149 | 25737 ft | 434 kts | 150° |
| 2026-04-20 15:24 | -6.49188 | 107.40664 | 26125 ft | 436 kts | 150° |
| 2026-04-20 15:25 | -6.51832 | 107.42189 | 26510 ft | 439 kts | 150° |
| 2026-04-20 15:25 | -6.54490 | 107.43715 | 26880 ft | 441 kts | 152° |
| 2026-04-20 15:25 | -6.57305 | 107.44958 | 27249 ft | 444 kts | 162° |
| 2026-04-20 15:25 | -6.60308 | 107.45727 | 27627 ft | 446 kts | 169° |
| 2026-04-20 15:26 | -6.63361 | 107.46318 | 28003 ft | 449 kts | 169° |
| 2026-04-20 15:26 | -6.66439 | 107.46918 | 28373 ft | 451 kts | 169° |
| 2026-04-20 15:26 | -6.69528 | 107.47526 | 28750 ft | 454 kts | 169° |
| 2026-04-20 15:26 | -6.72636 | 107.48143 | 29124 ft | 456 kts | 169° |
| 2026-04-20 15:27 | -6.75757 | 107.48767 | 29488 ft | 459 kts | 169° |
| 2026-04-20 15:27 | -6.78904 | 107.49395 | 29842 ft | 462 kts | 169° |
| 2026-04-20 15:27 | -6.82031 | 107.50161 | 30154 ft | 464 kts | 161° |
| 2026-04-20 15:27 | -6.84995 | 107.51476 | 30427 ft | 467 kts | 150° |
| 2026-04-20 15:28 | -6.87672 | 107.53330 | 30703 ft | 469 kts | 139° |
| 2026-04-20 15:28 | -6.89971 | 107.55659 | 30989 ft | 471 kts | 128° |
| 2026-04-20 15:28 | -6.91812 | 107.58396 | 31271 ft | 472 kts | 117° |
| 2026-04-20 15:28 | -6.93288 | 107.61322 | 31547 ft | 474 kts | 116° |
| 2026-04-20 15:29 | -6.94752 | 107.64254 | 31889 ft | 474 kts | 116° |
| 2026-04-20 15:29 | -6.96235 | 107.67216 | 32276 ft | 474 kts | 116° |
| 2026-04-20 15:29 | -6.97721 | 107.70177 | 32682 ft | 473 kts | 116° |
| 2026-04-20 15:29 | -6.99206 | 107.73128 | 33092 ft | 471 kts | 116° |
| 2026-04-20 15:30 | -7.00688 | 107.76064 | 33503 ft | 470 kts | 116° |
| 2026-04-20 15:30 | -7.02171 | 107.79004 | 33919 ft | 469 kts | 116° |
| 2026-04-20 15:30 | -7.03644 | 107.81930 | 34299 ft | 468 kts | 116° |
| 2026-04-20 15:30 | -7.05110 | 107.84850 | 34672 ft | 467 kts | 116° |
| 2026-04-20 15:31 | -7.06571 | 107.87764 | 35045 ft | 466 kts | 116° |
| 2026-04-20 15:31 | -7.08030 | 107.90674 | 35402 ft | 465 kts | 116° |
| 2026-04-20 15:31 | -7.09485 | 107.93579 | 35753 ft | 464 kts | 116° |
| 2026-04-20 15:31 | -7.10934 | 107.96470 | 36101 ft | 463 kts | 116° |
| 2026-04-20 15:32 | -7.12384 | 107.99359 | 36440 ft | 462 kts | 116° |
| 2026-04-20 15:32 | -7.13834 | 108.02245 | 36774 ft | 461 kts | 116° |
| 2026-04-20 15:32 | -7.15280 | 108.05125 | 36958 ft | 461 kts | 116° |
| 2026-04-20 15:33 | -7.18161 | 108.10870 | 36994 ft | 458 kts | 116° |
| 2026-04-20 15:33 | -7.21026 | 108.16591 | 36988 ft | 458 kts | 116° |
| 2026-04-20 15:34 | -7.23876 | 108.22280 | 36983 ft | 458 kts | 116° |
| 2026-04-20 15:34 | -7.26742 | 108.28010 | 36977 ft | 458 kts | 116° |
| 2026-04-20 15:35 | -7.29611 | 108.33749 | 36975 ft | 458 kts | 115° |
| 2026-04-20 15:35 | -7.32474 | 108.39477 | 36972 ft | 458 kts | 115° |
| 2026-04-20 15:36 | -7.35349 | 108.45217 | 36970 ft | 459 kts | 115° |
| 2026-04-20 15:36 | -7.38276 | 108.50915 | 36253 ft | 459 kts | 116° |
| 2026-04-20 15:36 | -7.39724 | 108.53793 | 35108 ft | 476 kts | 115° |
| 2026-04-20 15:37 | -7.41206 | 108.56805 | 34163 ft | 482 kts | 115° |
| 2026-04-20 15:37 | -7.42689 | 108.59841 | 33338 ft | 484 kts | 115° |
| 2026-04-20 15:37 | -7.44175 | 108.62873 | 32555 ft | 483 kts | 115° |
| 2026-04-20 15:37 | -7.45671 | 108.65904 | 31923 ft | 480 kts | 115° |
| 2026-04-20 15:38 | -7.47152 | 108.68886 | 31379 ft | 474 kts | 116° |
| 2026-04-20 15:38 | -7.48630 | 108.71843 | 30691 ft | 473 kts | 116° |
| 2026-04-20 15:38 | -7.50098 | 108.74764 | 30076 ft | 470 kts | 116° |
| 2026-04-20 15:38 | -7.51575 | 108.77700 | 29398 ft | 466 kts | 116° |
| 2026-04-20 15:39 | -7.53030 | 108.80602 | 28764 ft | 462 kts | 116° |
| 2026-04-20 15:39 | -7.54468 | 108.83478 | 28155 ft | 457 kts | 116° |
| 2026-04-20 15:39 | -7.55886 | 108.86325 | 27584 ft | 453 kts | 116° |
| 2026-04-20 15:39 | -7.57196 | 108.89192 | 27014 ft | 447 kts | 108° |
| 2026-04-20 15:40 | -7.58037 | 108.92197 | 26442 ft | 443 kts | 104° |
| 2026-04-20 15:40 | -7.58825 | 108.95179 | 25889 ft | 439 kts | 104° |
| 2026-04-20 15:40 | -7.59602 | 108.98136 | 25349 ft | 435 kts | 104° |
| 2026-04-20 15:40 | -7.60374 | 109.01072 | 24817 ft | 430 kts | 104° |
| 2026-04-20 15:41 | -7.61138 | 109.03976 | 24289 ft | 426 kts | 104° |
| 2026-04-20 15:41 | -7.61907 | 109.06860 | 23768 ft | 423 kts | 105° |
| 2026-04-20 15:41 | -7.62679 | 109.09670 | 23219 ft | 419 kts | 105° |
| 2026-04-20 15:41 | -7.63468 | 109.12480 | 22648 ft | 415 kts | 105° |
| 2026-04-20 15:42 | -7.64258 | 109.15272 | 22110 ft | 411 kts | 105° |
| 2026-04-20 15:42 | -7.65036 | 109.18029 | 21597 ft | 407 kts | 105° |
| 2026-04-20 15:42 | -7.65806 | 109.20762 | 20919 ft | 407 kts | 105° |
| 2026-04-20 15:42 | -7.66575 | 109.23515 | 20203 ft | 409 kts | 105° |
| 2026-04-20 15:43 | -7.67342 | 109.26277 | 19662 ft | 407 kts | 105° |
| 2026-04-20 15:43 | -7.68100 | 109.29002 | 19155 ft | 403 kts | 105° |
| 2026-04-20 15:43 | -7.68847 | 109.31682 | 18671 ft | 399 kts | 105° |
| 2026-04-20 15:43 | -7.69595 | 109.34364 | 18186 ft | 395 kts | 105° |
| 2026-04-20 15:44 | -7.70334 | 109.37022 | 17530 ft | 394 kts | 105° |
| 2026-04-20 15:44 | -7.71071 | 109.39689 | 16794 ft | 396 kts | 105° |
| 2026-04-20 15:44 | -7.71804 | 109.42342 | 16030 ft | 390 kts | 105° |
| 2026-04-20 15:44 | -7.72527 | 109.44960 | 15237 ft | 386 kts | 105° |
| 2026-04-20 15:45 | -7.73244 | 109.47554 | 14457 ft | 379 kts | 105° |
| 2026-04-20 15:45 | -7.73947 | 109.50092 | 13532 ft | 373 kts | 105° |
| 2026-04-20 15:45 | -7.74644 | 109.52596 | 12533 ft | 367 kts | 105° |
| 2026-04-20 15:45 | -7.75328 | 109.55058 | 11545 ft | 362 kts | 105° |
| 2026-04-20 15:46 | -7.76000 | 109.57469 | 10923 ft | 348 kts | 105° |
| 2026-04-20 15:46 | -7.76632 | 109.59737 | 10686 ft | 327 kts | 105° |
| 2026-04-20 15:46 | -7.77238 | 109.61912 | 10454 ft | 318 kts | 105° |
| 2026-04-20 15:46 | -7.77821 | 109.64010 | 10225 ft | 312 kts | 105° |
| 2026-04-20 15:47 | -7.78397 | 109.66093 | 10039 ft | 303 kts | 105° |
| 2026-04-20 15:47 | -7.78948 | 109.68095 | 9994 ft | 290 kts | 105° |
| 2026-04-20 15:47 | -7.79476 | 109.70010 | 9938 ft | 279 kts | 105° |
| 2026-04-20 15:47 | -7.79993 | 109.71886 | 9871 ft | 277 kts | 105° |
| 2026-04-20 15:48 | -7.80510 | 109.73753 | 9741 ft | 276 kts | 105° |
| 2026-04-20 15:48 | -7.81029 | 109.75611 | 9073 ft | 273 kts | 105° |
| 2026-04-20 15:48 | -7.81548 | 109.77439 | 8310 ft | 269 kts | 105° |
| 2026-04-20 15:48 | -7.82061 | 109.79246 | 7590 ft | 267 kts | 106° |
| 2026-04-20 15:49 | -7.82570 | 109.81034 | 6891 ft | 264 kts | 106° |
| 2026-04-20 15:49 | -7.83059 | 109.82804 | 6225 ft | 257 kts | 105° |
| 2026-04-20 15:49 | -7.83516 | 109.84517 | 5540 ft | 249 kts | 105° |
| 2026-04-20 15:49 | -7.83961 | 109.86177 | 4886 ft | 241 kts | 105° |
| 2026-04-20 15:50 | -7.84405 | 109.87785 | 4248 ft | 236 kts | 105° |
| 2026-04-20 15:50 | -7.84852 | 109.89358 | 3624 ft | 232 kts | 106° |
| 2026-04-20 15:50 | -7.85284 | 109.90926 | 2959 ft | 231 kts | 105° |
| 2026-04-20 15:50 | -7.85701 | 109.92481 | 2361 ft | 227 kts | 105° |
| 2026-04-20 15:51 | -7.86152 | 109.93939 | 1952 ft | 213 kts | 110° |
| 2026-04-20 15:51 | -7.86681 | 109.95292 | 1600 ft | 202 kts | 112° |
| 2026-04-20 15:51 | -7.87179 | 109.96571 | 1499 ft | 192 kts | 111° |
| 2026-04-20 15:51 | -7.87637 | 109.97804 | 1356 ft | 184 kts | 110° |
| 2026-04-20 15:52 | -7.88069 | 109.98981 | 1123 ft | 176 kts | 110° |
| 2026-04-20 15:52 | -7.88477 | 110.00097 | 913 ft | 163 kts | 110° |
| 2026-04-20 15:52 | -7.88856 | 110.01136 | 716 ft | 152 kts | 110° |
| 2026-04-20 15:53 | -7.89570 | 110.03100 | 305 ft | 149 kts | 109° |
| 2026-04-20 15:53 | -7.89924 | 110.04055 | 134 ft | 144 kts | 108° |
| 2026-04-20 15:53 | -7.90257 | 110.04969 | 34 ft | 126 kts | 111° |
| 2026-04-20 15:53 | -7.90501 | 110.05638 | 45 ft | 76 kts | 111° |
| 2026-04-20 15:54 | -7.90629 | 110.05990 | 43 ft | 41 kts | 109° |
| 2026-04-20 15:54 | -7.90665 | 110.06222 | 42 ft | 28 kts | 84° |
| 2026-04-20 15:54 | -7.90630 | 110.06359 | 39 ft | 17 kts | 64° |
| 2026-04-20 15:54 | -7.90577 | 110.06346 | 41 ft | 9 kts | 288° |
| 2026-04-20 15:55 | -7.90544 | 110.06255 | 42 ft | 20 kts | 290° |
| 2026-04-20 15:55 | -7.90491 | 110.06108 | 44 ft | 23 kts | 290° |
| 2026-04-20 15:55 | -7.90433 | 110.05950 | 44 ft | 25 kts | 289° |
| 2026-04-20 15:55 | -7.90373 | 110.05786 | 44 ft | 20 kts | 290° |
| 2026-04-20 15:56 | -7.90330 | 110.05752 | 44 ft | 8 kts | 10° |
| 2026-04-20 15:56 | -7.90265 | 110.05775 | 39 ft | 13 kts | 20° |
| 2026-04-20 15:56 | -7.90203 | 110.05802 | 38 ft | 4 kts | 34° |
| 2026-04-20 15:56 | -7.90172 | 110.05818 | 38 ft | 5 kts | 21° |
| 2026-04-20 15:57 | -7.90147 | 110.05827 | 38 ft | 3 kts | 20° |
| 2026-04-20 15:57 | -7.90128 | 110.05834 | 38 ft | 3 kts | 20° |
| 2026-04-20 15:57 | -7.90116 | 110.05838 | 38 ft | 0 kts | 20° |